Time;durP1;ratioP1;P1;durP2;ratioP2;P2;SDS_P1;SDS_P2;PMS_P1;PMS_P2;Temp;Humidity;BMP_temperature;BMP_pressure;BME280_temperature;BME280_humidity;BME280_pressure;Samples;Min_cycle;Max_cycle;Signal;HPM_P1;HPM_P2
2023/06/20 00:01:01;;;;;;;8.90;6.87;;;19.70;99.90;;;;;;5090683;28;20971;-54
2023/06/20 00:03:28;;;;;;;10.70;6.50;;;19.30;99.90;;;;;;5089150;28;20858;-54
2023/06/20 00:05:55;;;;;;;9.83;6.43;;;19.10;99.90;;;;;;5089049;28;20532;-54
2023/06/20 00:08:23;;;;;;;8.57;6.23;;;19.00;99.90;;;;;;5090205;28;20993;-53
2023/06/20 00:10:50;;;;;;;7.27;6.00;;;19.10;99.90;;;;;;5093526;28;20552;-53
2023/06/20 00:13:18;;;;;;;6.77;5.90;;;19.10;99.90;;;;;;5094693;28;20448;-56
2023/06/20 00:15:45;;;;;;;5.77;5.10;;;19.30;99.90;;;;;;5094406;28;20439;-53
2023/06/20 00:18:12;;;;;;;6.80;5.20;;;19.30;99.90;;;;;;5094271;28;20526;-54
2023/06/20 00:20:39;;;;;;;6.40;5.60;;;19.40;99.90;;;;;;5094639;28;20570;-54
2023/06/20 00:23:06;;;;;;;6.07;5.10;;;19.40;99.90;;;;;;5094326;28;20519;-54
2023/06/20 00:25:35;;;;;;;6.43;5.23;;;19.30;99.90;;;;;;5093727;28;20451;-53
2023/06/20 00:28:03;;;;;;;8.03;6.10;;;19.30;99.90;;;;;;5094006;28;21010;-55
2023/06/20 00:30:30;;;;;;;7.40;6.57;;;19.30;99.90;;;;;;5092555;28;20481;-53
2023/06/20 00:32:58;;;;;;;9.03;6.53;;;19.20;99.90;;;;;;5094063;28;20575;-55
2023/06/20 00:35:25;;;;;;;9.93;6.40;;;19.10;99.90;;;;;;5093821;28;20447;-54
2023/06/20 00:37:52;;;;;;;6.87;6.17;;;19.00;99.90;;;;;;5093704;28;20443;-55
2023/06/20 00:40:19;;;;;;;6.57;5.40;;;19.00;99.90;;;;;;5094108;28;20547;-54
2023/06/20 00:42:48;;;;;;;6.63;5.70;;;19.00;99.90;;;;;;5093923;28;20514;-54
2023/06/20 00:45:28;;;;;;;7.40;6.70;;;19.00;99.90;;;;;;5093577;28;20446;-53
2023/06/20 00:47:57;;;;;;;7.30;6.40;;;18.90;99.90;;;;;;5093736;28;20447;-57
2023/06/20 00:50:26;;;;;;;7.40;6.70;;;18.90;99.90;;;;;;5092010;28;20486;-54
2023/06/20 00:52:59;;;;;;;7.17;6.27;;;18.90;99.90;;;;;;5093924;28;20448;-54
2023/06/20 00:55:27;;;;;;;6.90;5.70;;;18.80;99.90;;;;;;5093562;28;20474;-54
2023/06/20 00:57:59;;;;;;;6.80;4.90;;;18.80;99.90;;;;;;5093474;28;20525;-54
2023/06/20 01:00:27;;;;;;;7.67;6.67;;;18.80;99.90;;;;;;5093809;28;20452;-54
2023/06/20 01:03:01;;;;;;;6.67;5.67;;;18.70;99.90;;;;;;5092230;28;20526;-53
2023/06/20 01:05:28;;;;;;;8.80;6.90;;;18.70;99.90;;;;;;5092301;28;20534;-55
2023/06/20 01:08:04;;;;;;;6.60;5.83;;;18.80;99.90;;;;;;5092998;28;20503;-54
2023/06/20 01:10:43;;;;;;;6.70;5.30;;;18.80;99.90;;;;;;5093408;28;20565;-53
2023/06/20 01:13:20;;;;;;;5.90;5.23;;;18.80;99.90;;;;;;5093522;28;20500;-53
2023/06/20 01:15:56;;;;;;;6.33;5.53;;;18.80;99.90;;;;;;5093077;28;20522;-54
2023/06/20 01:18:33;;;;;;;6.40;5.50;;;18.90;99.90;;;;;;5093210;28;20522;-54
2023/06/20 01:21:07;;;;;;;6.47;5.63;;;18.90;99.90;;;;;;5092364;28;20687;-54
2023/06/20 01:23:42;;;;;;;6.50;5.80;;;19.00;99.90;;;;;;5093401;28;20825;-53
2023/06/20 01:26:15;;;;;;;6.67;5.73;;;18.90;99.90;;;;;;5092669;28;20997;-53
2023/06/20 01:28:50;;;;;;;6.77;5.40;;;19.00;99.90;;;;;;5093040;28;20468;-54
2023/06/20 01:31:20;;;;;;;6.57;5.00;;;19.00;99.90;;;;;;5093279;28;20569;-55
2023/06/20 01:33:52;;;;;;;7.43;6.47;;;18.90;99.90;;;;;;5092923;28;20532;-55
2023/06/20 01:36:21;;;;;;;5.87;5.30;;;18.80;99.90;;;;;;5092601;28;20444;-54
2023/06/20 01:38:54;;;;;;;6.00;5.20;;;18.80;99.90;;;;;;5092496;28;20470;-54
2023/06/20 01:41:23;;;;;;;6.37;5.33;;;18.70;99.90;;;;;;5093159;28;20498;-53
2023/06/20 01:43:52;;;;;;;6.40;5.70;;;18.70;99.90;;;;;;5093197;28;20435;-54
2023/06/20 01:46:21;;;;;;;8.63;6.07;;;18.70;99.90;;;;;;5092215;28;20522;-53
2023/06/20 01:48:51;;;;;;;8.40;6.37;;;18.70;99.90;;;;;;5092585;28;20869;-54
2023/06/20 01:51:18;;;;;;;5.87;5.23;;;18.80;99.90;;;;;;5090948;28;20566;-56
2023/06/20 01:53:47;;;;;;;6.80;5.90;;;18.70;99.90;;;;;;5092845;28;20535;-53
2023/06/20 01:56:17;;;;;;;6.97;6.20;;;18.60;99.90;;;;;;5092084;28;20444;-55
2023/06/20 01:58:45;;;;;;;9.23;6.17;;;18.60;99.90;;;;;;5092337;28;20443;-53
2023/06/20 02:01:13;;;;;;;7.00;6.30;;;18.50;99.90;;;;;;5092740;28;20549;-53
2023/06/20 02:03:42;;;;;;;7.53;6.10;;;18.50;99.90;;;;;;5090834;28;20539;-54
2023/06/20 02:06:10;;;;;;;8.10;6.97;;;18.40;99.90;;;;;;5090611;28;20447;-55
2023/06/20 02:08:39;;;;;;;6.97;5.67;;;18.40;99.90;;;;;;5092298;28;20450;-55
2023/06/20 02:11:07;;;;;;;6.83;6.13;;;18.30;99.90;;;;;;5092055;28;20982;-53
2023/06/20 02:13:36;;;;;;;8.97;6.80;;;18.30;99.90;;;;;;5092366;28;20450;-53
2023/06/20 02:16:06;;;;;;;6.57;5.87;;;18.40;99.90;;;;;;5091702;28;20530;-53
2023/06/20 02:18:33;;;;;;;6.90;6.13;;;18.50;99.90;;;;;;5091844;28;20991;-54
2023/06/20 02:21:07;;;;;;;10.50;6.83;;;18.50;99.90;;;;;;5092097;28;20499;-53
2023/06/20 02:23:35;;;;;;;9.07;6.80;;;18.50;99.90;;;;;;5092188;28;20533;-54
2023/06/20 02:26:08;;;;;;;8.27;6.67;;;18.50;99.90;;;;;;5091628;28;20882;-54
2023/06/20 02:28:40;;;;;;;8.60;6.67;;;18.40;99.90;;;;;;5091710;28;20482;-54
2023/06/20 02:31:10;;;;;;;6.00;5.40;;;18.20;99.90;;;;;;5091763;28;21060;-53
2023/06/20 02:33:38;;;;;;;7.23;5.77;;;18.20;99.90;;;;;;5090980;28;20528;-53
2023/06/20 02:36:08;;;;;;;7.10;6.10;;;18.20;99.90;;;;;;5091504;28;20514;-54
2023/06/20 02:38:35;;;;;;;9.27;5.70;;;18.10;99.90;;;;;;5091531;28;20453;-53
2023/06/20 02:41:02;;;;;;;6.00;5.43;;;18.30;99.90;;;;;;5091780;28;20511;-53
2023/06/20 02:43:29;;;;;;;7.73;6.47;;;18.30;99.90;;;;;;5091937;28;20523;-53
2023/06/20 02:46:05;;;;;;;8.70;7.40;;;18.40;99.90;;;;;;5091343;28;20447;-53
2023/06/20 02:48:41;;;;;;;8.23;7.27;;;18.20;99.90;;;;;;5091632;28;20918;-53
2023/06/20 02:51:11;;;;;;;6.90;6.20;;;18.20;99.90;;;;;;5091473;28;20511;-53
2023/06/20 02:53:45;;;;;;;6.77;5.77;;;18.10;99.90;;;;;;5091667;28;20464;-53
2023/06/20 02:56:15;;;;;;;8.53;7.13;;;18.10;99.90;;;;;;5091075;28;20451;-53
2023/06/20 02:58:45;;;;;;;7.03;5.90;;;18.00;99.90;;;;;;5091247;28;20537;-53
2023/06/20 03:01:19;;;;;;;6.70;5.70;;;18.00;99.90;;;;;;5090670;28;20485;-57
2023/06/20 03:03:47;;;;;;;7.63;5.47;;;18.10;99.90;;;;;;5091535;28;20533;-54
2023/06/20 03:06:16;;;;;;;7.17;6.17;;;18.20;99.90;;;;;;5089217;28;20488;-54
2023/06/20 03:08:49;;;;;;;7.20;6.40;;;18.30;99.90;;;;;;5091019;28;20542;-55
2023/06/20 03:11:16;;;;;;;7.20;5.90;;;18.30;99.90;;;;;;5091231;28;20507;-53
2023/06/20 03:13:43;;;;;;;7.53;5.73;;;18.20;99.90;;;;;;5091279;28;20504;-53
2023/06/20 03:16:10;;;;;;;14.60;5.97;;;18.20;99.90;;;;;;5090724;28;20439;-54
2023/06/20 03:18:38;;;;;;;6.10;5.50;;;18.20;99.90;;;;;;5091098;28;20438;-54
2023/06/20 03:21:05;;;;;;;7.13;5.90;;;18.20;99.90;;;;;;5091479;28;20490;-53
2023/06/20 03:23:32;;;;;;;7.00;6.03;;;18.20;99.90;;;;;;5091175;28;20482;-54
2023/06/20 03:26:00;;;;;;;6.77;5.80;;;18.30;99.90;;;;;;5090821;28;20526;-53
2023/06/20 03:28:27;;;;;;;6.67;6.00;;;18.30;99.90;;;;;;5090890;28;20443;-54
2023/06/20 03:30:53;;;;;;;7.03;5.93;;;18.20;99.90;;;;;;5088680;28;20475;-53
2023/06/20 03:33:20;;;;;;;6.77;5.40;;;18.20;99.90;;;;;;5091450;28;20539;-54
2023/06/20 03:35:50;;;;;;;7.87;5.87;;;18.30;99.90;;;;;;5090155;28;20939;-54
2023/06/20 03:38:17;;;;;;;9.63;7.10;;;18.40;99.90;;;;;;5090756;28;20453;-55
2023/06/20 03:40:44;;;;;;;7.33;6.00;;;18.30;99.90;;;;;;5091057;28;20466;-54
2023/06/20 03:43:11;;;;;;;6.23;5.63;;;18.20;99.90;;;;;;5091018;28;20467;-53
2023/06/20 03:45:37;;;;;;;8.30;6.10;;;18.10;99.90;;;;;;5093389;28;20957;-53
2023/06/20 03:48:05;;;;;;;8.90;6.87;;;17.90;99.90;;;;;;5095019;28;20535;-53
2023/06/20 03:50:32;;;;;;;7.97;6.63;;;17.80;99.90;;;;;;5092879;28;20983;-53
2023/06/20 03:53:00;;;;;;;7.40;6.70;;;17.70;99.90;;;;;;5095078;28;20520;-53
2023/06/20 03:55:27;;;;;;;7.90;5.73;;;17.50;99.90;;;;;;5094852;28;20446;-53
2023/06/20 03:57:55;;;;;;;7.87;6.77;;;17.60;99.90;;;;;;5095125;28;20496;-54
2023/06/20 04:00:22;;;;;;;6.93;5.93;;;17.70;99.90;;;;;;5094362;28;20466;-54
2023/06/20 04:02:49;;;;;;;7.97;6.20;;;17.80;99.90;;;;;;5091707;28;20489;-54
2023/06/20 04:05:16;;;;;;;6.57;5.90;;;17.80;99.90;;;;;;5092921;28;20452;-54
2023/06/20 04:07:43;;;;;;;7.10;6.33;;;17.80;99.90;;;;;;5091770;28;20880;-54
2023/06/20 04:10:13;;;;;;;7.07;6.37;;;18.00;99.90;;;;;;5093265;28;20949;-55
2023/06/20 04:12:40;;;;;;;7.70;6.53;;;18.00;99.90;;;;;;5093362;28;20528;-54
2023/06/20 04:15:09;;;;;;;7.57;5.80;;;18.10;99.90;;;;;;5093236;28;20530;-52
2023/06/20 04:17:37;;;;;;;7.17;5.10;;;18.20;99.90;;;;;;5094570;28;20533;-54
2023/06/20 04:20:11;;;;;;;7.43;6.40;;;18.20;99.90;;;;;;5094294;28;21010;-55
2023/06/20 04:22:40;;;;;;;6.80;6.10;;;18.20;99.90;;;;;;5093915;28;20462;-55
2023/06/20 04:25:08;;;;;;;5.93;5.33;;;18.30;99.90;;;;;;5093871;28;20445;-54
2023/06/20 04:27:36;;;;;;;7.17;5.70;;;18.50;99.90;;;;;;5094117;28;20984;-54
2023/06/20 04:30:05;;;;;;;7.90;6.43;;;18.50;99.90;;;;;;5093964;28;20560;-54
2023/06/20 04:32:32;;;;;;;6.20;5.10;;;18.50;99.90;;;;;;5092261;28;20484;-54
2023/06/20 04:34:59;;;;;;;9.00;5.67;;;18.50;99.90;;;;;;5094130;28;20537;-53
2023/06/20 04:37:29;;;;;;;10.30;6.73;;;18.50;99.90;;;;;;5094348;28;20957;-54
2023/06/20 04:39:57;;;;;;;7.20;5.73;;;18.50;99.90;;;;;;5094099;28;20502;-54
2023/06/20 04:42:24;;;;;;;7.50;6.00;;;18.40;99.90;;;;;;5094093;28;20845;-53
2023/06/20 04:44:52;;;;;;;8.30;6.67;;;18.30;99.90;;;;;;5094581;28;20534;-54
2023/06/20 04:47:19;;;;;;;6.90;5.70;;;18.40;99.90;;;;;;5093763;28;20442;-53
2023/06/20 04:49:46;;;;;;;6.90;5.70;;;18.50;99.90;;;;;;5093679;28;20505;-53
2023/06/20 04:52:13;;;;;;;7.60;5.20;;;18.60;99.90;;;;;;5084460;28;20486;-54
2023/06/20 04:54:39;;;;;;;6.37;5.50;;;18.60;99.90;;;;;;5087432;28;20900;-53
2023/06/20 04:57:06;;;;;;;7.50;6.10;;;18.50;99.90;;;;;;5081066;28;20535;-55
2023/06/20 04:59:35;;;;;;;10.47;8.27;;;18.30;99.90;;;;;;5082717;28;20494;-53
2023/06/20 05:02:05;;;;;;;8.70;7.80;;;18.00;99.90;;;;;;5082212;28;20431;-53
2023/06/20 05:04:32;;;;;;;9.67;8.67;;;17.60;99.90;;;;;;5076015;28;20448;-53
2023/06/20 05:07:00;;;;;;;7.07;6.37;;;17.70;99.90;;;;;;5071047;28;20539;-53
2023/06/20 05:09:27;;;;;;;8.07;5.53;;;17.70;99.90;;;;;;5077093;28;21086;-56
2023/06/20 05:11:54;;;;;;;10.43;9.33;;;17.80;99.90;;;;;;5082253;28;20469;-53
2023/06/20 05:14:21;;;;;;;10.90;7.83;;;17.90;99.90;;;;;;5088991;28;20443;-54
2023/06/20 05:16:48;;;;;;;7.17;6.07;;;17.90;99.90;;;;;;5092829;28;20443;-54
2023/06/20 05:19:16;;;;;;;9.60;8.17;;;18.00;99.90;;;;;;5088879;28;20619;-53
2023/06/20 05:21:43;;;;;;;10.17;8.00;;;18.20;99.90;;;;;;5082522;28;20875;-53
2023/06/20 05:24:10;;;;;;;9.23;8.23;;;18.10;99.90;;;;;;5081837;28;20474;-53
2023/06/20 05:26:37;;;;;;;8.27;7.43;;;17.90;99.90;;;;;;5081565;28;20444;-54
2023/06/20 05:29:04;;;;;;;8.97;6.47;;;17.90;99.90;;;;;;5082690;28;20481;-55
2023/06/20 05:31:31;;;;;;;7.47;6.30;;;18.00;99.90;;;;;;5084455;28;20505;-53
2023/06/20 05:33:58;;;;;;;9.20;5.60;;;18.20;99.90;;;;;;5091880;28;20580;-53
2023/06/20 05:36:26;;;;;;;8.47;6.97;;;18.30;99.90;;;;;;5092126;28;20534;-54
2023/06/20 05:38:53;;;;;;;7.70;6.90;;;18.30;99.90;;;;;;5093028;28;20539;-54
2023/06/20 05:41:20;;;;;;;9.33;5.73;;;18.30;99.90;;;;;;5092980;28;21128;-53
2023/06/20 05:43:47;;;;;;;6.97;6.27;;;18.50;99.90;;;;;;5093751;28;20437;-53
2023/06/20 05:46:14;;;;;;;7.03;6.17;;;18.60;99.90;;;;;;5092416;28;20787;-53
2023/06/20 05:48:41;;;;;;;7.23;6.53;;;18.80;99.90;;;;;;5084228;28;20539;-54
2023/06/20 05:51:12;;;;;;;7.40;6.40;;;18.90;99.90;;;;;;5064900;28;20550;-54
2023/06/20 05:53:41;;;;;;;8.33;7.00;;;19.00;99.90;;;;;;5086347;28;20550;-54
2023/06/20 05:56:08;;;;;;;7.23;6.20;;;19.00;99.90;;;;;;5086350;28;20444;-53
2023/06/20 05:58:36;;;;;;;7.17;6.47;;;19.10;99.90;;;;;;5090363;28;20471;-56
2023/06/20 06:01:03;;;;;;;7.70;6.33;;;19.10;99.90;;;;;;5090899;28;20468;-53
2023/06/20 06:03:31;;;;;;;8.03;6.70;;;19.30;99.90;;;;;;5085606;28;20477;-55
2023/06/20 06:05:57;;;;;;;7.67;6.20;;;19.20;99.90;;;;;;5076336;28;20450;-53
2023/06/20 06:08:25;;;;;;;9.00;6.77;;;19.40;99.90;;;;;;5070609;28;20510;-54
2023/06/20 06:10:53;;;;;;;8.70;7.20;;;20.00;99.90;;;;;;5070895;28;20558;-54
2023/06/20 06:13:20;;;;;;;7.37;5.20;;;20.90;99.90;;;;;;5070968;28;20583;-53
2023/06/20 06:15:47;;;;;;;7.30;6.60;;;21.80;99.90;;;;;;5070298;28;20531;-53
2023/06/20 06:18:14;;;;;;;8.20;7.07;;;22.40;99.90;;;;;;5070227;28;21031;-53
2023/06/20 06:20:42;;;;;;;9.03;6.43;;;22.90;99.90;;;;;;5070563;28;20546;-57
2023/06/20 06:23:09;;;;;;;6.83;5.53;;;23.00;99.90;;;;;;5070340;28;20514;-54
2023/06/20 06:25:36;;;;;;;8.23;6.40;;;23.00;99.90;;;;;;5078135;28;20476;-55
2023/06/20 06:28:04;;;;;;;7.10;6.40;;;22.70;99.90;;;;;;5090507;28;20523;-55
2023/06/20 06:30:32;;;;;;;6.83;6.10;;;22.50;99.90;;;;;;5080258;28;20467;-54
2023/06/20 06:33:01;;;;;;;6.13;5.43;;;22.20;99.90;;;;;;5090632;28;20997;-54
2023/06/20 06:35:30;;;;;;;6.67;5.53;;;21.90;99.90;;;;;;5090308;28;20472;-54
2023/06/20 06:37:58;;;;;;;7.50;6.03;;;21.60;99.90;;;;;;5090538;28;20966;-53
2023/06/20 06:40:25;;;;;;;6.97;5.50;;;21.50;99.90;;;;;;5090544;28;21021;-54
2023/06/20 06:42:52;;;;;;;7.23;5.73;;;21.50;99.90;;;;;;5090684;28;20530;-54
2023/06/20 06:45:21;;;;;;;8.07;5.87;;;21.40;99.90;;;;;;5090192;28;20435;-53
2023/06/20 06:47:47;;;;;;;8.13;7.13;;;21.30;99.90;;;;;;5090393;28;20681;-55
2023/06/20 06:50:15;;;;;;;9.30;7.47;;;21.10;99.90;;;;;;5090719;28;20575;-54
2023/06/20 06:52:42;;;;;;;8.27;6.80;;;21.10;99.90;;;;;;5090304;28;20467;-55
2023/06/20 06:55:09;;;;;;;8.43;6.63;;;21.10;99.90;;;;;;5089054;28;20448;-54
2023/06/20 06:57:36;;;;;;;7.83;5.57;;;21.20;99.90;;;;;;5089750;28;20858;-54
2023/06/20 07:00:09;;;;;;;6.73;6.00;;;21.20;99.90;;;;;;5081871;28;20544;-54
2023/06/20 07:02:38;;;;;;;8.30;7.50;;;21.20;99.90;;;;;;5088534;28;20444;-54
2023/06/20 07:05:05;;;;;;;6.80;6.10;;;21.30;99.90;;;;;;5090130;28;20533;-56
2023/06/20 07:07:32;;;;;;;10.40;7.70;;;21.40;99.90;;;;;;5089015;28;20443;-54
2023/06/20 07:10:00;;;;;;;7.50;6.50;;;21.40;99.90;;;;;;5088181;28;20546;-54
2023/06/20 07:12:27;;;;;;;7.67;6.87;;;21.40;99.90;;;;;;5090073;28;20471;-55
2023/06/20 07:14:56;;;;;;;10.57;9.50;;;21.40;99.90;;;;;;5090036;28;20543;-54
2023/06/20 07:17:23;;;;;;;7.70;6.70;;;21.30;99.90;;;;;;5089415;28;20507;-54
2023/06/20 07:19:51;;;;;;;6.80;6.07;;;21.30;99.90;;;;;;5089034;28;21006;-54
2023/06/20 07:22:19;;;;;;;7.53;5.80;;;21.30;99.90;;;;;;5089992;28;20500;-54
2023/06/20 07:24:46;;;;;;;9.67;8.07;;;21.40;99.90;;;;;;5089252;28;20487;-56
2023/06/20 07:27:13;;;;;;;6.37;5.77;;;21.50;99.90;;;;;;5089306;28;20528;-55
2023/06/20 07:29:40;;;;;;;7.97;6.30;;;21.60;99.90;;;;;;5080968;28;20544;-56
2023/06/20 07:32:08;;;;;;;6.93;6.17;;;21.70;99.90;;;;;;5088066;28;20533;-53
2023/06/20 07:34:35;;;;;;;7.83;6.30;;;21.70;99.90;;;;;;5089824;28;20482;-54
2023/06/20 07:37:03;;;;;;;7.50;6.80;;;21.70;99.90;;;;;;5089293;28;20864;-51
2023/06/20 07:39:30;;;;;;;8.10;7.20;;;21.70;99.90;;;;;;5089973;28;20524;-51
2023/06/20 07:41:57;;;;;;;8.07;7.27;;;21.80;99.90;;;;;;5089849;28;20530;-51
2023/06/20 07:44:24;;;;;;;7.70;6.50;;;21.90;99.90;;;;;;5089792;28;21015;-53
2023/06/20 07:46:51;;;;;;;7.43;6.63;;;22.10;99.90;;;;;;5089054;28;20498;-57
2023/06/20 07:49:17;;;;;;;8.37;7.57;;;22.50;99.90;;;;;;5089098;28;20538;-51
2023/06/20 07:51:46;;;;;;;8.00;6.40;;;22.90;99.90;;;;;;5089742;28;20519;-51
2023/06/20 07:54:15;;;;;;;7.60;6.83;;;23.00;99.90;;;;;;5089751;28;20475;-51
2023/06/20 07:56:42;;;;;;;9.20;6.23;;;23.30;99.90;;;;;;5088977;28;20447;-51
2023/06/20 07:59:09;;;;;;;8.03;7.17;;;23.50;99.90;;;;;;5080949;28;20471;-52
2023/06/20 08:01:36;;;;;;;9.73;8.77;;;23.60;99.90;;;;;;5068067;28;21005;-53
2023/06/20 08:04:03;;;;;;;7.83;6.77;;;23.50;99.90;;;;;;5069608;28;20511;-51
2023/06/20 08:06:30;;;;;;;8.87;8.00;;;23.40;99.90;;;;;;5067136;28;20536;-54
2023/06/20 08:08:56;;;;;;;9.20;8.30;;;23.40;99.90;;;;;;5067221;28;20943;-50
2023/06/20 08:11:25;;;;;;;6.97;6.23;;;23.20;99.90;;;;;;5069136;28;20999;-51
2023/06/20 08:13:52;;;;;;;6.97;6.27;;;23.40;99.90;;;;;;5069215;28;20499;-53
2023/06/20 08:16:19;;;;;;;7.17;5.90;;;23.60;99.90;;;;;;5069385;28;20466;-54
2023/06/20 08:18:46;;;;;;;5.57;5.07;;;23.80;99.90;;;;;;5069999;28;20487;-51
2023/06/20 08:21:13;;;;;;;8.33;6.30;;;24.00;99.90;;;;;;5069199;28;20461;-51
2023/06/20 08:23:40;;;;;;;7.97;6.60;;;24.20;99.90;;;;;;5069193;28;20436;-52
2023/06/20 08:26:07;;;;;;;9.37;7.07;;;24.40;99.90;;;;;;5068852;28;20565;-54
2023/06/20 08:28:35;;;;;;;7.40;6.60;;;24.50;99.90;;;;;;5068860;28;20878;-51
2023/06/20 08:31:04;;;;;;;8.13;7.07;;;24.50;99.90;;;;;;5069128;28;20525;-51
2023/06/20 08:33:30;;;;;;;7.10;6.37;;;24.60;99.90;;;;;;5072712;28;20472;-53
2023/06/20 08:35:58;;;;;;;7.47;6.30;;;24.60;99.90;;;;;;5072393;28;20527;-53
2023/06/20 08:38:24;;;;;;;9.57;8.13;;;24.40;99.90;;;;;;5070820;28;20506;-51
2023/06/20 08:40:51;;;;;;;9.60;8.60;;;24.40;99.90;;;;;;5072400;28;20539;-53
2023/06/20 08:43:19;;;;;;;7.97;7.17;;;24.20;99.90;;;;;;5072339;28;20523;-51
2023/06/20 08:45:47;;;;;;;7.47;6.67;;;24.10;99.90;;;;;;5072352;28;20476;-52
2023/06/20 08:48:14;;;;;;;8.60;7.80;;;24.00;99.90;;;;;;5072677;28;20970;-51
2023/06/20 08:50:41;;;;;;;7.60;6.40;;;24.10;99.90;;;;;;5072287;28;20460;-52
2023/06/20 08:53:09;;;;;;;10.03;8.90;;;24.10;99.90;;;;;;5072352;28;20935;-54
2023/06/20 08:55:40;;;;;;;10.33;6.60;;;24.20;99.90;;;;;;5072055;28;20452;-52
2023/06/20 08:58:09;;;;;;;6.70;5.80;;;24.00;99.90;;;;;;5072067;28;20796;-51
2023/06/20 09:00:37;;;;;;;6.90;6.23;;;24.30;99.90;;;;;;5072614;28;20456;-53
2023/06/20 09:03:05;;;;;;;14.33;9.57;;;24.40;99.90;;;;;;5070180;28;20469;-51
2023/06/20 09:05:33;;;;;;;7.17;6.37;;;24.40;99.90;;;;;;5069993;28;20532;-50
2023/06/20 09:08:00;;;;;;;6.83;6.13;;;24.40;99.90;;;;;;5071870;28;20448;-51
2023/06/20 09:10:27;;;;;;;7.30;6.50;;;24.60;99.90;;;;;;5072178;28;20891;-52
2023/06/20 09:12:56;;;;;;;10.00;9.00;;;24.70;99.90;;;;;;5071887;28;20971;-54
2023/06/20 09:15:25;;;;;;;9.60;7.20;;;24.80;99.90;;;;;;5079463;28;20448;-51
2023/06/20 09:17:53;;;;;;;8.97;8.07;;;24.60;99.90;;;;;;5081232;28;20432;-51
2023/06/20 09:20:24;;;;;;;9.23;8.30;;;24.50;99.90;;;;;;5086896;28;20550;-52
2023/06/20 09:22:51;;;;;;;8.03;5.97;;;24.50;99.90;;;;;;5080931;28;20529;-54
2023/06/20 09:25:22;;;;;;;6.80;5.83;;;24.70;99.90;;;;;;5071100;28;20523;-52
2023/06/20 09:27:49;;;;;;;6.87;6.27;;;24.90;99.90;;;;;;5072721;28;20440;-51
2023/06/20 09:30:16;;;;;;;9.27;8.13;;;25.00;99.90;;;;;;5072784;28;20531;-52
2023/06/20 09:32:44;;;;;;;7.87;7.07;;;24.90;99.90;;;;;;5072718;28;20533;-54
2023/06/20 09:35:14;;;;;;;7.33;6.60;;;24.80;99.90;;;;;;5073516;28;20490;-51
2023/06/20 09:37:43;;;;;;;8.00;7.20;;;25.00;99.90;;;;;;5084322;28;20528;-52
2023/06/20 09:40:11;;;;;;;7.57;6.80;;;25.00;99.90;;;;;;5093027;28;20501;-50
2023/06/20 09:42:39;;;;;;;9.43;8.43;;;25.20;99.90;;;;;;5092807;28;20546;-51
2023/06/20 09:45:08;;;;;;;8.43;7.60;;;25.20;99.90;;;;;;5092916;28;20974;-51
2023/06/20 09:47:37;;;;;;;8.20;6.63;;;25.10;99.90;;;;;;5092784;28;20450;-53
2023/06/20 09:50:08;;;;;;;8.43;7.60;;;25.30;99.90;;;;;;5092709;28;20459;-51
2023/06/20 09:52:40;;;;;;;7.57;6.80;;;25.50;99.90;;;;;;5092817;28;20526;-54
2023/06/20 09:55:11;;;;;;;6.97;6.27;;;25.60;99.90;;;;;;5092898;28;20574;-52
2023/06/20 09:57:42;;;;;;;7.20;6.40;;;25.70;99.90;;;;;;5091163;28;20530;-51
2023/06/20 10:00:14;;;;;;;7.03;6.33;;;25.80;99.90;;;;;;5092737;28;20464;-52
2023/06/20 10:02:44;;;;;;;6.83;6.10;;;25.70;99.90;;;;;;5090395;28;20443;-51
2023/06/20 10:05:13;;;;;;;7.80;7.07;;;25.90;99.90;;;;;;5092497;28;20446;-51
2023/06/20 10:07:42;;;;;;;8.53;7.20;;;26.10;99.90;;;;;;5085330;28;20542;-52
2023/06/20 10:10:11;;;;;;;6.67;5.67;;;26.20;99.90;;;;;;5081616;28;20479;-53
2023/06/20 10:12:39;;;;;;;9.70;8.70;;;26.30;99.90;;;;;;5088708;28;20537;-52
2023/06/20 10:15:08;;;;;;;7.70;6.90;;;26.40;99.90;;;;;;5090866;28;20478;-55
2023/06/20 10:17:38;;;;;;;8.47;7.10;;;26.40;99.90;;;;;;5072876;28;20451;-51
2023/06/20 10:20:07;;;;;;;7.40;6.63;;;26.30;99.90;;;;;;5076347;28;20591;-51
2023/06/20 10:22:36;;;;;;;6.50;5.67;;;26.30;99.90;;;;;;5079846;28;20448;-53
2023/06/20 10:25:11;;;;;;;6.50;5.80;;;26.40;99.90;;;;;;5088690;28;20489;-51
2023/06/20 10:27:41;;;;;;;6.70;6.10;;;26.60;99.90;;;;;;5086016;28;20455;-53
2023/06/20 10:30:09;;;;;;;8.50;6.83;;;26.70;99.90;;;;;;5083710;28;20544;-52
2023/06/20 10:32:36;;;;;;;7.67;6.97;;;26.60;99.90;;;;;;5081393;28;20586;-51
2023/06/20 10:35:09;;;;;;;7.90;7.20;;;26.50;99.90;;;;;;5080981;28;20562;-51
2023/06/20 10:37:38;;;;;;;7.20;6.50;;;26.60;99.90;;;;;;5082398;28;20986;-52
2023/06/20 10:40:08;;;;;;;6.80;6.10;;;26.50;99.90;;;;;;5079582;28;20910;-51
2023/06/20 10:42:41;;;;;;;8.67;7.70;;;26.50;99.90;;;;;;5080602;28;20459;-51
2023/06/20 10:45:22;;;;;;;32.63;7.27;;;26.50;99.90;;;;;;5085466;28;20510;-51
2023/06/20 10:47:50;;;;;;;6.90;6.07;;;26.60;99.90;;;;;;5081832;28;20490;-51
2023/06/20 10:50:17;;;;;;;7.47;6.77;;;26.70;99.90;;;;;;5076318;28;20538;-51
2023/06/20 10:52:44;;;;;;;8.17;7.37;;;26.80;99.90;;;;;;5084284;28;20479;-52
2023/06/20 10:55:15;;;;;;;8.40;6.93;;;;;;;;;;5082660;28;20567;-52
2023/06/20 10:57:47;;;;;;;8.63;6.40;;;27.70;99.90;;;;;;5082820;28;20459;-51
2023/06/20 11:00:17;;;;;;;7.33;6.57;;;26.90;99.90;;;;;;5078584;28;20914;-53
2023/06/20 11:02:45;;;;;;;9.83;6.53;;;27.00;99.90;;;;;;5084606;28;21154;-51
2023/06/20 11:05:12;;;;;;;7.37;6.57;;;26.90;99.90;;;;;;5075770;28;20489;-52
2023/06/20 11:07:56;;;;;;;8.70;7.23;;;27.00;99.90;;;;;;5079363;28;20543;-51
2023/06/20 11:10:27;;;;;;;6.23;5.63;;;27.00;99.90;;;;;;5083631;28;20942;-51
2023/06/20 11:12:56;;;;;;;7.47;6.37;;;27.10;99.90;;;;;;5087808;28;20982;-52
2023/06/20 11:15:25;;;;;;;8.10;7.30;;;27.10;99.90;;;;;;5084682;28;20673;-52
2023/06/20 11:17:53;;;;;;;8.13;7.33;;;27.10;99.90;;;;;;5084840;28;20498;-52
2023/06/20 11:20:23;;;;;;;8.87;7.97;;;27.10;99.90;;;;;;5072226;28;21372;-51
2023/06/20 11:22:52;;;;;;;6.70;5.77;;;27.10;99.90;;;;;;5079274;28;20435;-52
2023/06/20 11:25:26;;;;;;;7.37;6.67;;;27.20;99.90;;;;;;5089484;28;20476;-56
2023/06/20 11:27:54;;;;;;;7.17;6.20;;;27.30;99.90;;;;;;5086460;28;20890;-51
2023/06/20 11:30:31;;;;;;;7.27;6.57;;;27.40;99.90;;;;;;5085838;28;20844;-51
2023/06/20 11:33:06;;;;;;;8.17;7.37;;;27.40;99.90;;;;;;5078933;28;20480;-51
2023/06/20 11:35:44;;;;;;;6.33;5.73;;;27.50;99.90;;;;;;5070496;28;20472;-52
2023/06/20 11:38:13;;;;;;;8.17;7.37;;;27.60;99.90;;;;;;5070470;28;21007;-52
2023/06/20 11:40:41;;;;;;;6.80;6.10;;;27.60;99.90;;;;;;5070777;28;20461;-54
2023/06/20 11:43:18;;;;;;;7.00;6.30;;;27.50;99.90;;;;;;5070784;28;20947;-51
2023/06/20 11:45:46;;;;;;;7.40;6.60;;;27.50;99.90;;;;;;5088405;28;20444;-52
2023/06/20 11:48:14;;;;;;;7.63;6.43;;;27.60;99.90;;;;;;5087763;28;20787;-52
2023/06/20 11:50:43;;;;;;;6.70;6.10;;;27.60;99.90;;;;;;5088249;28;20491;-52
2023/06/20 11:53:19;;;;;;;9.43;7.07;;;27.70;99.20;;;;;;5078462;28;20447;-51
2023/06/20 11:55:50;;;;;;;7.77;7.00;;;27.70;99.90;;;;;;5086642;28;20475;-53
2023/06/20 11:58:18;;;;;;;7.73;6.90;;;27.70;99.90;;;;;;5090137;28;21111;-52
2023/06/20 12:00:47;;;;;;;7.67;6.90;;;27.80;99.40;;;;;;5086778;28;20554;-51
2023/06/20 12:03:16;;;;;;;6.43;5.83;;;27.80;99.90;;;;;;5088920;28;20500;-52
2023/06/20 12:05:44;;;;;;;7.00;6.30;;;27.80;99.90;;;;;;5081101;28;20955;-52
2023/06/20 12:08:13;;;;;;;7.53;6.70;;;28.00;99.90;;;;;;5081125;28;20441;-52
2023/06/20 12:10:41;;;;;;;5.90;5.23;;;28.10;99.90;;;;;;5077478;28;20459;-52
2023/06/20 12:13:08;;;;;;;7.67;6.57;;;28.20;99.90;;;;;;5084826;28;20523;-54
2023/06/20 12:15:35;;;;;;;7.93;7.07;;;28.30;99.90;;;;;;5085522;28;20942;-51
2023/06/20 12:18:03;;;;;;;8.30;6.80;;;28.30;99.90;;;;;;5094195;28;20448;-52
2023/06/20 12:20:30;;;;;;;7.23;6.50;;;28.30;99.80;;;;;;5094181;28;20466;-52
2023/06/20 12:22:58;;;;;;;7.20;6.33;;;28.30;99.90;;;;;;5094240;28;21029;-51
2023/06/20 12:25:25;;;;;;;6.47;5.80;;;28.30;99.90;;;;;;5092918;28;20445;-51
2023/06/20 12:27:52;;;;;;;6.80;6.10;;;28.30;99.90;;;;;;5088934;28;20979;-52
2023/06/20 12:30:19;;;;;;;9.30;6.40;;;28.40;99.90;;;;;;5085583;28;20499;-52
2023/06/20 12:32:47;;;;;;;7.00;6.30;;;28.50;99.30;;;;;;5094286;28;20789;-51
2023/06/20 12:35:15;;;;;;;7.10;6.37;;;28.60;99.90;;;;;;5087691;28;20471;-51
2023/06/20 12:37:42;;;;;;;7.83;6.83;;;28.50;99.90;;;;;;5090117;28;20521;-52
2023/06/20 12:40:13;;;;;;;8.20;6.93;;;28.50;99.90;;;;;;5087071;28;20491;-52
2023/06/20 12:42:40;;;;;;;7.37;6.60;;;28.50;99.80;;;;;;5093922;28;20448;-52
2023/06/20 12:45:10;;;;;;;9.83;7.07;;;28.50;99.40;;;;;;5093562;28;20519;-52
2023/06/20 12:47:37;;;;;;;7.83;7.10;;;28.60;99.90;;;;;;5093632;28;20543;-52
2023/06/20 12:50:04;;;;;;;6.87;6.27;;;28.60;99.90;;;;;;5093638;28;20499;-53
2023/06/20 12:52:33;;;;;;;6.93;6.23;;;28.70;99.90;;;;;;5092273;28;20439;-51